Time;durP1;ratioP1;P1;durP2;ratioP2;P2;SDS_P1;SDS_P2;PMS_P1;PMS_P2;Temp;Humidity;BMP_temperature;BMP_pressure;BME280_temperature;BME280_humidity;BME280_pressure;Samples;Min_cycle;Max_cycle;Signal;HPM_P1;HPM_P2
2024/04/15 00:00:20;;;;;;;8.30;1.52;;;;;;;;;;5450203;26;20011;-63
2024/04/15 00:02:45;;;;;;;5.22;1.40;;;;;;;;;;5450852;26;20079;-64
2024/04/15 00:05:11;;;;;;;4.90;1.42;;;;;;;;;;5434940;26;20451;-62
2024/04/15 00:07:36;;;;;;;5.97;1.60;;;;;;;;;;5439506;26;20486;-62
2024/04/15 00:10:03;;;;;;;4.50;1.25;;;;;;;;;;5450641;26;20004;-62
2024/04/15 00:12:28;;;;;;;5.35;1.33;;;;;;;;;;5449656;26;19991;-63
2024/04/15 00:14:54;;;;;;;5.72;1.60;;;;;;;;;;5455056;26;20001;-63
2024/04/15 00:17:19;;;;;;;6.18;2.00;;;;;;;;;;5449401;26;20047;-65
2024/04/15 00:19:45;;;;;;;5.97;1.60;;;;;;;;;;5416247;26;20045;-62
2024/04/15 00:22:10;;;;;;;5.03;1.50;;;;;;;;;;5412527;26;20011;-64
2024/04/15 00:24:36;;;;;;;5.22;1.40;;;;;;;;;;5413231;26;20003;-62
2024/04/15 00:27:01;;;;;;;4.43;1.35;;;;;;;;;;5416231;26;20006;-61
2024/04/15 00:29:27;;;;;;;5.18;1.40;;;;;;;;;;5427282;26;19995;-63
2024/04/15 00:31:52;;;;;;;4.97;1.40;;;;;;;;;;5438033;26;20067;-62
2024/04/15 00:34:19;;;;;;;5.78;1.90;;;;;;;;;;5420278;26;20128;-64
2024/04/15 00:36:45;;;;;;;5.90;1.60;;;;;;;;;;5413190;26;20010;-64
2024/04/15 00:39:10;;;;;;;6.55;1.52;;;;;;;;;;5420121;26;19992;-62
2024/04/15 00:41:36;;;;;;;5.88;1.80;;;;;;;;;;5448475;26;20018;-64
2024/04/15 00:44:01;;;;;;;7.25;1.60;;;;;;;;;;5434717;26;20011;-62
2024/04/15 00:46:27;;;;;;;5.40;1.65;;;;;;;;;;5433094;26;20013;-63
2024/04/15 00:48:53;;;;;;;4.72;1.63;;;;;;;;;;5435216;26;20000;-63
2024/04/15 00:51:21;;;;;;;5.07;1.52;;;;;;;;;;5424542;26;20422;-62
2024/04/15 00:53:47;;;;;;;5.93;1.70;;;;;;;;;;5448718;26;20465;-62
2024/04/15 00:56:13;;;;;;;6.10;1.77;;;;;;;;;;5419616;26;20459;-62
2024/04/15 00:58:39;;;;;;;5.82;1.60;;;;;;;;;;5414978;26;20069;-62
2024/04/15 01:01:05;;;;;;;6.93;1.60;;;;;;;;;;5416775;26;20531;-63
2024/04/15 01:03:30;;;;;;;7.18;1.70;;;;;;;;;;5432004;26;20412;-62
2024/04/15 01:05:56;;;;;;;5.65;1.70;;;;;;;;;;5419307;26;20651;-63
2024/04/15 01:08:21;;;;;;;6.53;1.70;;;;;;;;;;5418249;26;20015;-61
2024/04/15 01:10:47;;;;;;;5.57;1.80;;;;;;;;;;5417682;26;19999;-63
2024/04/15 01:13:13;;;;;;;4.30;1.45;;;;;;;;;;5426304;26;20004;-64
2024/04/15 01:15:38;;;;;;;5.60;1.85;;;;;;;;;;5425281;26;20018;-62
2024/04/15 01:18:04;;;;;;;7.15;1.50;;;;;;;;;;5421623;26;20424;-62
2024/04/15 01:20:30;;;;;;;5.45;1.30;;;;;;;;;;5444796;26;20007;-64
2024/04/15 01:23:01;;;;;;;6.25;1.50;;;;;;;;;;5454621;26;20003;-66
2024/04/15 01:25:26;;;;;;;4.95;1.40;;;;;;;;;;5432905;26;20004;-62
2024/04/15 01:27:52;;;;;;;6.25;1.60;;;;;;;;;;5413502;26;20005;-62
2024/04/15 01:30:18;;;;;;;5.93;1.70;;;;;;;;;;5431351;26;20007;-64
2024/04/15 01:32:44;;;;;;;5.10;1.48;;;;;;;;;;5421816;26;19998;-63
2024/04/15 01:35:09;;;;;;;3.85;1.38;;;;;;;;;;5422918;26;20443;-63
2024/04/15 01:37:35;;;;;;;4.65;1.45;;;;;;;;;;5438988;26;20014;-62
2024/04/15 01:40:00;;;;;;;4.68;1.52;;;;;;;;;;5424941;26;20045;-63
2024/04/15 01:42:26;;;;;;;6.25;1.67;;;;;;;;;;5416253;26;20336;-63
2024/04/15 01:44:51;;;;;;;6.35;2.03;;;;;;;;;;5416328;26;20409;-62
2024/04/15 01:47:17;;;;;;;4.68;1.42;;;;;;;;;;5415820;26;20009;-61
2024/04/15 01:49:42;;;;;;;4.30;1.30;;;;;;;;;;5416469;26;20044;-63
2024/04/15 01:52:08;;;;;;;7.00;1.80;;;;;;;;;;5423347;26;20012;-63
2024/04/15 01:54:34;;;;;;;6.15;1.85;;;;;;;;;;5419304;26;20332;-65
2024/04/15 01:56:59;;;;;;;7.30;1.70;;;;;;;;;;5415955;26;20000;-64
2024/04/15 01:59:25;;;;;;;7.60;1.70;;;;;;;;;;5416157;26;20010;-62
2024/04/15 02:01:50;;;;;;;4.50;1.67;;;;;;;;;;5422050;26;20381;-62
2024/04/15 02:04:16;;;;;;;4.82;1.67;;;;;;;;;;5415904;26;20442;-64
2024/04/15 02:06:41;;;;;;;4.18;1.50;;;;;;;;;;5444894;26;20466;-66
2024/04/15 02:09:07;;;;;;;7.15;2.05;;;;;;;;;;5448359;26;20510;-62
2024/04/15 02:11:32;;;;;;;4.47;1.92;;;;;;;;;;5451773;26;20002;-64
2024/04/15 02:13:58;;;;;;;5.65;2.17;;;;;;;;;;5450768;26;20063;-62
2024/04/15 02:16:23;;;;;;;6.35;2.13;;;;;;;;;;5421164;26;19996;-62
2024/04/15 02:18:49;;;;;;;4.85;1.80;;;;;;;;;;5416835;26;20063;-63
2024/04/15 02:21:14;;;;;;;7.00;1.92;;;;;;;;;;5421733;26;20003;-64
2024/04/15 02:23:40;;;;;;;7.57;2.13;;;;;;;;;;5444424;26;20003;-66
2024/04/15 02:26:06;;;;;;;4.57;1.80;;;;;;;;;;5450667;26;20070;-64
2024/04/15 02:28:31;;;;;;;6.20;2.15;;;;;;;;;;5451889;26;19995;-63
2024/04/15 02:30:57;;;;;;;5.13;1.67;;;;;;;;;;5433338;26;20150;-62
2024/04/15 02:33:22;;;;;;;6.30;2.00;;;;;;;;;;5437749;26;20003;-63
2024/04/15 02:35:48;;;;;;;5.63;2.00;;;;;;;;;;5422412;26;20072;-63
2024/04/15 02:38:13;;;;;;;7.30;2.33;;;;;;;;;;5414037;26;20014;-65
2024/04/15 02:40:39;;;;;;;4.95;1.90;;;;;;;;;;5415770;26;20007;-63
2024/04/15 02:43:04;;;;;;;7.18;2.22;;;;;;;;;;5450811;26;20063;-64
2024/04/15 02:45:30;;;;;;;8.23;2.25;;;;;;;;;;5447373;26;20010;-63
2024/04/15 02:47:55;;;;;;;7.97;2.58;;;;;;;;;;5450168;26;20066;-62
2024/04/15 02:50:21;;;;;;;5.95;2.10;;;;;;;;;;5453879;26;19999;-64
2024/04/15 02:52:46;;;;;;;7.25;2.70;;;;;;;;;;5452006;26;20007;-62
2024/04/15 02:55:12;;;;;;;6.95;2.75;;;;;;;;;;5443732;26;20073;-64
2024/04/15 02:57:37;;;;;;;5.68;2.40;;;;;;;;;;5414049;26;20011;-64
2024/04/15 03:00:03;;;;;;;8.00;2.10;;;;;;;;;;5415890;26;20008;-66
2024/04/15 03:02:29;;;;;;;6.32;1.85;;;;;;;;;;5439506;26;20068;-63
2024/04/15 03:04:54;;;;;;;6.88;2.30;;;;;;;;;;5444490;26;20009;-64
2024/04/15 03:07:20;;;;;;;6.05;1.83;;;;;;;;;;5451116;26;20403;-62
2024/04/15 03:09:45;;;;;;;6.60;1.95;;;;;;;;;;5420497;26;20004;-63
2024/04/15 03:12:15;;;;;;;8.02;1.83;;;;;;;;;;5432709;26;20009;-65
2024/04/15 03:14:41;;;;;;;11.15;1.98;;;;;;;;;;5419276;26;19994;-63
2024/04/15 03:17:06;;;;;;;6.65;1.55;;;;;;;;;;5414880;26;20471;-63
2024/04/15 03:19:32;;;;;;;5.55;1.77;;;;;;;;;;5424263;26;20766;-63
2024/04/15 03:21:58;;;;;;;7.40;1.65;;;;;;;;;;5445974;26;20439;-63
2024/04/15 03:24:23;;;;;;;11.10;1.77;;;;;;;;;;5444554;26;20388;-63
2024/04/15 03:26:49;;;;;;;6.32;1.65;;;;;;;;;;5415305;26;20329;-62
2024/04/15 03:29:14;;;;;;;8.23;2.25;;;;;;;;;;5415274;26;20690;-61
2024/04/15 03:31:40;;;;;;;8.63;2.20;;;;;;;;;;5418411;26;20536;-61
2024/04/15 03:34:05;;;;;;;9.02;1.75;;;;;;;;;;5432310;26;20463;-63
2024/04/15 03:36:31;;;;;;;7.95;1.80;;;;;;;;;;5447285;26;20399;-62
2024/04/15 03:38:56;;;;;;;6.43;1.70;;;;;;;;;;5449787;26;20003;-61
2024/04/15 03:41:22;;;;;;;6.13;1.45;;;;;;;;;;5450856;26;20014;-62
2024/04/15 03:43:47;;;;;;;8.13;1.88;;;;;;;;;;5450486;26;20130;-63
2024/04/15 03:46:13;;;;;;;7.70;1.65;;;;;;;;;;5450269;26;19994;-63
2024/04/15 03:48:38;;;;;;;8.18;1.70;;;;;;;;;;5449319;26;20052;-64
2024/04/15 03:51:04;;;;;;;5.97;1.80;;;;;;;;;;5450589;26;20086;-62
2024/04/15 03:53:31;;;;;;;7.70;1.80;;;;;;;;;;5446446;26;19992;-64
2024/04/15 03:55:57;;;;;;;8.73;2.03;;;;;;;;;;5449713;26;20435;-63
2024/04/15 03:58:22;;;;;;;7.32;1.90;;;;;;;;;;5451077;26;20005;-63
2024/04/15 04:00:48;;;;;;;5.85;1.90;;;;;;;;;;5450559;26;20003;-62
2024/04/15 04:03:17;;;;;;;6.90;2.17;;;;;;;;;;5414856;26;20026;-63
2024/04/15 04:05:43;;;;;;;5.85;1.67;;;;;;;;;;5414522;26;20511;-61
2024/04/15 04:08:08;;;;;;;10.90;1.80;;;;;;;;;;5414305;26;19995;-63
2024/04/15 04:10:34;;;;;;;8.07;2.00;;;;;;;;;;5428821;26;20079;-63
2024/04/15 04:13:00;;;;;;;11.68;2.40;;;;;;;;;;5444863;26;20332;-63
2024/04/15 04:15:25;;;;;;;7.60;1.80;;;;;;;;;;5448081;26;20002;-62
2024/04/15 04:17:51;;;;;;;8.23;2.17;;;;;;;;;;5433744;26;20072;-61
2024/04/15 04:20:16;;;;;;;6.95;2.20;;;;;;;;;;5440458;26;19991;-64
2024/04/15 04:22:42;;;;;;;9.02;2.08;;;;;;;;;;5437841;26;20010;-62
2024/04/15 04:25:08;;;;;;;8.77;2.20;;;;;;;;;;5439023;26;20003;-63
2024/04/15 04:27:33;;;;;;;10.48;2.38;;;;;;;;;;5435315;26;20011;-62
2024/04/15 04:29:59;;;;;;;8.20;2.20;;;;;;;;;;5447126;26;20007;-63
2024/04/15 04:32:24;;;;;;;11.43;2.13;;;;;;;;;;5447567;26;20003;-63
2024/04/15 04:34:50;;;;;;;8.30;2.60;;;;;;;;;;5436388;26;20066;-62
2024/04/15 04:37:15;;;;;;;9.40;2.53;;;;;;;;;;5419039;26;20240;-63
2024/04/15 04:39:41;;;;;;;10.93;3.00;;;;;;;;;;5427249;26;20044;-63
2024/04/15 04:42:06;;;;;;;9.27;2.50;;;;;;;;;;5446365;26;19995;-64
2024/04/15 04:44:32;;;;;;;8.32;2.35;;;;;;;;;;5426245;26;19995;-62
2024/04/15 04:46:57;;;;;;;9.13;3.25;;;;;;;;;;5412803;26;20402;-64
2024/04/15 04:49:23;;;;;;;11.63;2.90;;;;;;;;;;5445666;26;20339;-62
2024/04/15 04:51:48;;;;;;;7.20;3.05;;;;;;;;;;5433642;26;20390;-64
2024/04/15 04:54:14;;;;;;;7.70;2.78;;;;;;;;;;5412733;26;20022;-62
2024/04/15 04:56:40;;;;;;;7.90;2.83;;;;;;;;;;5412397;26;20148;-63
2024/04/15 04:59:05;;;;;;;11.80;3.58;;;;;;;;;;5418474;26;20006;-64
2024/04/15 05:01:31;;;;;;;11.13;3.72;;;;;;;;;;5432206;26;20007;-63
2024/04/15 05:03:56;;;;;;;11.15;3.58;;;;;;;;;;5414040;26;20011;-64
2024/04/15 05:06:22;;;;;;;8.55;3.70;;;;;;;;;;5434790;26;20094;-64
2024/04/15 05:08:48;;;;;;;10.90;4.20;;;;;;;;;;5447268;26;20071;-64
2024/04/15 05:11:13;;;;;;;9.35;4.00;;;;;;;;;;5440212;26;19995;-63
2024/04/15 05:13:39;;;;;;;12.23;5.13;;;;;;;;;;5441304;26;20004;-63
2024/04/15 05:16:05;;;;;;;12.63;4.68;;;;;;;;;;5420795;26;20007;-64
2024/04/15 05:18:31;;;;;;;;;;;;;;;;;;5431419;26;20007;-66
2024/04/15 05:20:57;;;;;;;9.67;4.27;;;;;;;;;;5446702;26;19925;-64
2024/04/15 05:23:22;;;;;;;11.07;4.20;;;;;;;;;;5459309;26;20386;-63
2024/04/15 05:25:48;;;;;;;12.55;5.38;;;;;;;;;;5438159;26;20014;-64
2024/04/15 05:28:13;;;;;;;8.95;4.07;;;;;;;;;;5446705;26;20048;-63
2024/04/15 05:30:39;;;;;;;7.22;3.88;;;;;;;;;;5472600;26;20001;-65
2024/04/15 05:33:04;;;;;;;10.05;4.15;;;;;;;;;;5442132;26;20006;-63
2024/04/15 05:35:30;;;;;;;9.55;3.65;;;;;;;;;;5446905;26;20011;-62
2024/04/15 05:37:55;;;;;;;8.88;3.53;;;;;;;;;;5434948;26;20359;-63
2024/04/15 05:40:21;;;;;;;7.82;3.30;;;;;;;;;;5429410;26;20488;-62
2024/04/15 05:42:46;;;;;;;8.13;2.75;;;;;;;;;;5426894;26;20409;-62
2024/04/15 05:45:12;;;;;;;8.98;3.25;;;;;;;;;;5434526;26;20461;-63
2024/04/15 05:47:37;;;;;;;7.30;2.90;;;;;;;;;;5433049;26;20467;-64
2024/04/15 05:50:03;;;;;;;6.10;2.97;;;;;;;;;;5429475;26;20528;-63
2024/04/15 05:52:29;;;;;;;6.65;2.50;;;;;;;;;;5439477;26;19995;-62
2024/04/15 05:54:54;;;;;;;7.38;2.90;;;;;;;;;;5427735;26;20075;-64
2024/04/15 05:57:20;;;;;;;7.57;2.58;;;;;;;;;;5430881;26;20014;-64
2024/04/15 05:59:47;;;;;;;11.50;3.45;;;;;;;;;;5423881;26;20001;-63
2024/04/15 06:02:12;;;;;;;8.23;3.20;;;;;;;;;;5425168;26;20000;-62
2024/04/15 06:04:38;;;;;;;8.88;2.88;;;;;;;;;;5430768;26;20005;-64
2024/04/15 06:07:04;;;;;;;9.38;3.38;;;;;;;;;;5443393;26;20003;-64
2024/04/15 06:09:29;;;;;;;9.43;3.03;;;;;;;;;;5427577;26;20007;-62
2024/04/15 06:11:55;;;;;;;8.20;2.67;;;;;;;;;;5436076;26;20071;-64
2024/04/15 06:14:22;;;;;;;8.40;3.08;;;;;;;;;;5434625;26;20355;-63
2024/04/15 06:16:48;;;;;;;8.70;2.97;;;;;;;;;;5433761;26;20013;-62
2024/04/15 06:19:13;;;;;;;6.82;2.88;;;;;;;;;;5446858;26;19991;-62
2024/04/15 06:21:40;;;;;;;8.07;3.28;;;;;;;;;;5416076;26;20006;-63
2024/04/15 06:24:05;;;;;;;7.55;3.08;;;;;;;;;;5447831;26;20006;-62
2024/04/15 06:26:31;;;;;;;11.82;3.60;;;;;;;;;;5444026;26;20339;-63
2024/04/15 06:28:56;;;;;;;6.47;2.92;;;;;;;;;;5448607;26;20067;-64
2024/04/15 06:31:22;;;;;;;7.57;3.20;;;;;;;;;;5447807;26;20078;-62
2024/04/15 06:33:47;;;;;;;9.45;3.05;;;;;;;;;;5447384;26;19995;-64
2024/04/15 06:36:13;;;;;;;7.03;2.53;;;;;;;;;;5434171;26;20011;-64
2024/04/15 06:38:38;;;;;;;8.57;3.15;;;;;;;;;;5447912;26;20067;-64
2024/04/15 06:41:04;;;;;;;7.57;2.72;;;;;;;;;;5452495;26;20002;-64
2024/04/15 06:43:30;;;;;;;6.97;2.85;;;;;;;;;;5442514;26;20008;-62
2024/04/15 06:45:55;;;;;;;8.75;2.70;;;;;;;;;;5434217;26;20067;-62
2024/04/15 06:48:21;;;;;;;5.40;2.55;;;;;;;;;;5430644;26;20010;-63
2024/04/15 06:50:46;;;;;;;6.95;2.30;;;;;;;;;;5431399;26;20008;-61
2024/04/15 06:53:12;;;;;;;7.13;2.75;;;;;;;;;;5428987;26;20007;-63
2024/04/15 06:55:38;;;;;;;7.05;2.05;;;;;;;;;;5441262;26;20075;-64
2024/04/15 06:58:03;;;;;;;5.53;1.98;;;;;;;;;;5440858;26;19995;-62
2024/04/15 07:00:29;;;;;;;5.85;2.00;;;;;;;;;;5446780;26;20640;-62
2024/04/15 07:02:54;;;;;;;6.53;2.10;;;;;;;;;;5417179;26;20031;-63
2024/04/15 07:05:20;;;;;;;7.35;2.40;;;;;;;;;;5432879;26;20141;-62
2024/04/15 07:07:46;;;;;;;7.05;2.67;;;;;;;;;;5429102;26;20405;-62
2024/04/15 07:10:11;;;;;;;7.57;2.80;;;;;;;;;;5448597;26;20328;-62
2024/04/15 07:12:37;;;;;;;5.78;2.67;;;;;;;;;;5436865;26;20140;-61
2024/04/15 07:15:03;;;;;;;6.05;2.60;;;;;;;;;;5450622;26;20473;-63
2024/04/15 07:17:28;;;;;;;7.40;2.83;;;;;;;;;;5448850;26;20011;-62
2024/04/15 07:19:54;;;;;;;7.13;2.78;;;;;;;;;;5446999;26;20684;-61
2024/04/15 07:22:19;;;;;;;6.43;2.53;;;;;;;;;;5430545;26;20406;-61
2024/04/15 07:24:45;;;;;;;7.95;2.45;;;;;;;;;;5439031;26;20376;-61
2024/04/15 07:27:10;;;;;;;6.80;2.25;;;;;;;;;;5437043;26;19998;-63
2024/04/15 07:29:36;;;;;;;4.80;2.00;;;;;;;;;;5450385;26;20007;-63
2024/04/15 07:32:04;;;;;;;6.40;1.92;;;;;;;;;;5449753;26;20463;-62
2024/04/15 07:34:29;;;;;;;4.28;1.95;;;;;;;;;;5439726;26;20014;-62
2024/04/15 07:36:55;;;;;;;6.45;1.88;;;;;;;;;;5450615;26;20354;-62
2024/04/15 07:39:20;;;;;;;6.43;2.08;;;;;;;;;;5450658;26;20392;-61
2024/04/15 07:41:46;;;;;;;5.97;2.00;;;;;;;;;;5447946;26;20239;-61
2024/04/15 07:44:11;;;;;;;5.85;2.08;;;;;;;;;;5451819;26;20346;-64
2024/04/15 07:46:37;;;;;;;5.05;2.33;;;;;;;;;;5427382;26;20015;-63
2024/04/15 07:49:02;;;;;;;5.95;1.70;;;;;;;;;;5445680;26;20067;-62
2024/04/15 07:51:28;;;;;;;7.07;1.77;;;;;;;;;;5431864;26;20047;-64
2024/04/15 07:53:54;;;;;;;4.47;1.60;;;;;;;;;;5431333;26;20010;-62
2024/04/15 07:56:20;;;;;;;4.18;1.60;;;;;;;;;;5439829;26;20438;-62
2024/04/15 07:58:45;;;;;;;7.43;1.80;;;;;;;;;;5449205;26;20006;-62
2024/04/15 08:01:11;;;;;;;5.32;1.80;;;;;;;;;;5435892;26;20011;-65
2024/04/15 08:03:36;;;;;;;5.07;1.50;;;;;;;;;;5450971;26;20016;-64
2024/04/15 08:06:02;;;;;;;4.68;1.50;;;;;;;;;;5441321;26;20008;-63
2024/04/15 08:08:28;;;;;;;4.80;1.65;;;;;;;;;;5417956;26;20070;-63
2024/04/15 08:10:53;;;;;;;4.55;1.58;;;;;;;;;;5439468;26;22418;-64
2024/04/15 08:13:19;;;;;;;5.32;1.40;;;;;;;;;;5432240;26;20011;-63
2024/04/15 08:15:45;;;;;;;4.53;1.20;;;;;;;;;;5432272;26;20343;-62
2024/04/15 08:18:11;;;;;;;;;;;;;;;;;;5431807;26;20327;-62
2024/04/15 08:20:36;;;;;;;4.68;1.50;;;;;;;;;;5429000;26;19925;-63
2024/04/15 08:23:02;;;;;;;4.75;1.50;;;;;;;;;;5421757;26;20091;-64
2024/04/15 08:25:27;;;;;;;5.70;1.88;;;;;;;;;;5431914;26;20476;-63
2024/04/15 08:27:53;;;;;;;7.55;1.70;;;;;;;;;;5420781;26;20320;-63
2024/04/15 08:30:22;;;;;;;5.90;1.60;;;;;;;;;;5413657;26;20720;-63
2024/04/15 08:32:50;;;;;;;5.50;1.90;;;;;;;;;;5413604;26;20007;-63
2024/04/15 08:35:15;;;;;;;5.22;1.67;;;;;;;;;;5427112;26;20004;-62
2024/04/15 08:37:41;;;;;;;5.38;1.92;;;;;;;;;;5435041;26;19995;-63
2024/04/15 08:40:07;;;;;;;5.43;1.60;;;;;;;;;;5423037;26;20081;-63
2024/04/15 08:42:33;;;;;;;4.57;1.60;;;;;;;;;;5435915;26;20006;-63
2024/04/15 08:44:59;;;;;;;5.35;1.77;;;;;;;;;;5444276;26;20443;-63
2024/04/15 08:47:29;;;;;;;4.55;1.50;;;;;;;;;;5434848;26;20003;-62
2024/04/15 08:49:54;;;;;;;5.50;1.75;;;;;;;;;;5435280;26;20006;-62
2024/04/15 08:52:20;;;;;;;6.78;1.90;;;;;;;;;;5445450;26;20412;-63
2024/04/15 08:54:45;;;;;;;6.50;1.63;;;;;;;;;;5434693;26;20393;-61
2024/04/15 08:57:12;;;;;;;5.60;1.80;;;;;;;;;;5446388;26;20399;-61
2024/04/15 08:59:38;;;;;;;5.80;1.75;;;;;;;;;;5433936;26;19999;-63
2024/04/15 09:02:05;;;;;;;6.45;1.80;;;;;;;;;;5433803;26;20019;-63
2024/04/15 09:04:31;;;;;;;5.32;1.60;;;;;;;;;;5440224;26;19995;-62
2024/04/15 09:06:57;;;;;;;6.60;1.75;;;;;;;;;;5421499;26;20528;-66
2024/04/15 09:09:22;;;;;;;6.20;1.92;;;;;;;;;;5432375;26;20067;-63
2024/04/15 09:11:48;;;;;;;5.60;1.80;;;;;;;;;;5441099;26;20011;-62
2024/04/15 09:14:15;;;;;;;6.35;1.92;;;;;;;;;;5420320;26;20075;-64
2024/04/15 09:16:40;;;;;;;5.68;1.50;;;;;;;;;;5414735;26;20003;-65
2024/04/15 09:19:08;;;;;;;6.70;1.45;;;;;;;;;;5432869;26;20000;-62
2024/04/15 09:21:34;;;;;;;4.70;1.80;;;;;;;;;;5415857;26;20025;-63
2024/04/15 09:23:59;;;;;;;5.68;1.67;;;;;;;;;;5426966;26;20011;-64
2024/04/15 09:26:25;;;;;;;7.45;1.83;;;;;;;;;;5432935;26;20010;-64
2024/04/15 09:28:50;;;;;;;4.95;1.70;;;;;;;;;;5445470;26;20071;-62
2024/04/15 09:31:17;;;;;;;6.55;1.73;;;;;;;;;;5444760;26;20017;-64
2024/04/15 09:33:42;;;;;;;8.05;2.22;;;;;;;;;;5417476;26;20004;-62
2024/04/15 09:36:08;;;;;;;5.70;2.00;;;;;;;;;;5448919;26;20584;-61
2024/04/15 09:38:33;;;;;;;6.38;1.67;;;;;;;;;;5449314;26;20326;-62
2024/04/15 09:41:00;;;;;;;8.30;2.20;;;;;;;;;;5422241;26;20003;-63
2024/04/15 09:43:25;;;;;;;5.28;1.70;;;;;;;;;;5449491;26;20002;-62
2024/04/15 09:45:51;;;;;;;5.45;1.95;;;;;;;;;;5434312;26;20026;-63
2024/04/15 09:48:22;;;;;;;5.30;1.90;;;;;;;;;;5453095;26;20307;-65
2024/04/15 09:50:50;;;;;;;6.40;1.92;;;;;;;;;;5454940;26;20056;-63
2024/04/15 09:53:19;;;;;;;5.38;2.13;;;;;;;;;;5440212;26;20014;-62
2024/04/15 09:55:49;;;;;;;6.45;2.20;;;;;;;;;;5414887;26;20015;-62
2024/04/15 09:58:17;;;;;;;4.75;1.83;;;;;;;;;;5426566;26;20014;-63
2024/04/15 10:00:43;;;;;;;5.80;2.00;;;;;;;;;;5436715;26;20063;-64
2024/04/15 10:03:29;;;;;;;6.80;2.20;;;;;;;;;;5449149;26;19994;-61
2024/04/15 10:05:56;;;;;;;6.13;2.13;;;;;;;;;;5451492;26;20002;-61
2024/04/15 10:08:22;;;;;;;6.22;2.20;;;;;;;;;;5452523;26;20044;-66
2024/04/15 10:10:47;;;;;;;6.50;2.00;;;;;;;;;;5441510;26;20029;-62
2024/04/15 10:13:13;;;;;;;5.85;2.10;;;;;;;;;;5417744;26;20000;-63
2024/04/15 10:15:39;;;;;;;5.63;2.00;;;;;;;;;;5422593;26;20466;-62
2024/04/15 10:18:08;;;;;;;5.40;1.98;;;;;;;;;;5445893;26;20071;-62
2024/04/15 10:20:35;;;;;;;8.15;2.38;;;;;;;;;;5424958;26;20009;-63
2024/04/15 10:23:03;;;;;;;10.65;2.38;;;;;;;;;;5452418;26;19986;-63
2024/04/15 10:25:32;;;;;;;6.10;2.17;;;;;;;;;;5449181;26;19999;-62
2024/04/15 10:27:57;;;;;;;6.78;1.90;;;;;;;;;;5440921;26;20010;-64
2024/04/15 10:30:25;;;;;;;5.82;2.20;;;;;;;;;;5428369;26;19995;-62
2024/04/15 10:32:56;;;;;;;6.20;2.08;;;;;;;;;;5444957;26;19994;-63
2024/04/15 10:35:22;;;;;;;7.15;2.08;;;;;;;;;;5447584;26;20011;-65
2024/04/15 10:37:51;;;;;;;5.78;1.75;;;;;;;;;;5441940;26;20000;-61
2024/04/15 10:40:19;;;;;;;6.88;2.22;;;;;;;;;;5446188;26;20007;-62
2024/04/15 10:42:45;;;;;;;5.35;1.73;;;;;;;;;;5447724;26;20406;-62
2024/04/15 10:45:15;;;;;;;5.75;2.20;;;;;;;;;;5445883;26;20000;-64
2024/04/15 10:47:41;;;;;;;8.80;2.13;;;;;;;;;;5445734;26;20512;-64
2024/04/15 10:50:08;;;;;;;5.20;1.90;;;;;;;;;;5446907;26;20447;-62
2024/04/15 10:52:34;;;;;;;6.97;2.05;;;;;;;;;;5444299;26;19995;-62
2024/04/15 10:54:59;;;;;;;6.38;1.50;;;;;;;;;;5455529;26;19995;-64
2024/04/15 10:57:25;;;;;;;4.50;1.50;;;;;;;;;;5449303;26;20010;-63
2024/04/15 10:59:50;;;;;;;5.88;1.92;;;;;;;;;;5437633;26;20031;-64
2024/04/15 11:02:16;;;;;;;5.70;2.05;;;;;;;;;;5451858;26;20396;-63
2024/04/15 11:04:42;;;;;;;5.22;1.80;;;;;;;;;;5451666;26;19987;-62
2024/04/15 11:07:07;;;;;;;6.25;1.80;;;;;;;;;;5447219;26;20017;-62
2024/04/15 11:09:34;;;;;;;4.72;1.40;;;;;;;;;;5453044;26;20335;-62
2024/04/15 11:11:59;;;;;;;;;;;;;;;;;;5453700;26;20062;-61
2024/04/15 11:14:25;;;;;;;6.47;1.70;;;;;;;;;;5457560;26;19924;-62
2024/04/15 11:16:51;;;;;;;6.40;1.73;;;;;;;;;;5456481;26;20316;-65
2024/04/15 11:19:16;;;;;;;5.75;1.73;;;;;;;;;;5453975;26;20044;-63
2024/04/15 11:21:42;;;;;;;4.65;1.52;;;;;;;;;;5452640;26;19999;-62
2024/04/15 11:24:08;;;;;;;7.18;2.00;;;;;;;;;;5451472;26;20461;-63
2024/04/15 11:26:36;;;;;;;4.15;1.42;;;;;;;;;;5437485;26;20513;-64
2024/04/15 11:29:02;;;;;;;4.57;1.67;;;;;;;;;;5413937;26;20082;-62
2024/04/15 11:31:28;;;;;;;5.47;1.80;;;;;;;;;;5415464;26;20009;-63
2024/04/15 11:33:54;;;;;;;5.82;1.50;;;;;;;;;;5415303;26;19995;-62
2024/04/15 11:36:19;;;;;;;5.72;1.83;;;;;;;;;;5414851;26;20060;-65
2024/04/15 11:38:45;;;;;;;5.82;1.50;;;;;;;;;;5414747;26;19987;-61
2024/04/15 11:41:10;;;;;;;3.78;1.48;;;;;;;;;;5414363;26;20016;-62
2024/04/15 11:43:39;;;;;;;6.07;1.83;;;;;;;;;;5414595;26;20080;-64
2024/04/15 11:46:04;;;;;;;6.82;1.70;;;;;;;;;;5414596;26;20452;-63
2024/04/15 11:48:30;;;;;;;5.88;1.88;;;;;;;;;;5415079;26;20000;-64
2024/04/15 11:50:56;;;;;;;5.13;1.90;;;;;;;;;;5414617;26;20004;-63
2024/04/15 11:53:23;;;;;;;6.03;1.95;;;;;;;;;;5414227;26;20004;-65
2024/04/15 11:55:49;;;;;;;3.50;1.40;;;;;;;;;;5413180;26;20053;-62
2024/04/15 11:58:14;;;;;;;4.88;1.60;;;;;;;;;;5414948;26;20011;-62
2024/04/15 12:00:40;;;;;;;4.38;1.42;;;;;;;;;;5415434;26;19995;-62
2024/04/15 12:03:05;;;;;;;5.78;1.60;;;;;;;;;;5415556;26;20007;-63
2024/04/15 12:05:33;;;;;;;5.40;1.50;;;;;;;;;;5414971;26;20059;-64
2024/04/15 12:07:58;;;;;;;5.72;1.80;;;;;;;;;;5415312;26;20008;-63
2024/04/15 12:10:24;;;;;;;4.75;1.50;;;;;;;;;;5414928;26;19996;-61
2024/04/15 12:12:49;;;;;;;5.82;1.30;;;;;;;;;;5415442;26;19999;-61
2024/04/15 12:15:15;;;;;;;4.43;1.38;;;;;;;;;;5414571;26;20007;-63
2024/04/15 12:17:40;;;;;;;5.30;1.60;;;;;;;;;;5415274;26;20061;-61
2024/04/15 12:20:07;;;;;;;3.60;1.23;;;;;;;;;;5414568;26;20385;-62
2024/04/15 12:22:33;;;;;;;6.10;1.52;;;;;;;;;;5414248;26;20072;-63
2024/04/15 12:24:59;;;;;;;5.22;1.38;;;;;;;;;;5414600;26;20007;-64
2024/04/15 12:27:25;;;;;;;4.22;1.50;;;;;;;;;;5414088;26;20039;-61
2024/04/15 12:29:50;;;;;;;4.57;1.35;;;;;;;;;;5412462;26;20467;-63
2024/04/15 12:32:16;;;;;;;5.63;1.40;;;;;;;;;;5413847;26;20071;-62
2024/04/15 12:34:42;;;;;;;6.53;1.50;;;;;;;;;;5413822;26;19995;-65
2024/04/15 12:37:07;;;;;;;3.97;1.40;;;;;;;;;;5414035;26;20003;-63
2024/04/15 12:39:33;;;;;;;5.25;1.50;;;;;;;;;;5413914;26;20059;-63
2024/04/15 12:41:58;;;;;;;5.35;2.03;;;;;;;;;;5415298;26;19996;-62
2024/04/15 12:44:24;;;;;;;4.45;1.60;;;;;;;;;;5417641;26;20003;-61
2024/04/15 12:46:50;;;;;;;5.75;1.73;;;;;;;;;;5413845;26;20015;-61
2024/04/15 12:49:16;;;;;;;4.53;1.45;;;;;;;;;;5412457;26;20011;-61
2024/04/15 12:51:41;;;;;;;6.60;1.30;;;;;;;;;;5413370;26;20007;-65
2024/04/15 12:54:07;;;;;;;3.88;1.30;;;;;;;;;;5424336;26;20323;-62
2024/04/15 12:56:32;;;;;;;5.10;1.25;;;;;;;;;;5444689;26;20400;-62
2024/04/15 12:58:58;;;;;;;5.20;1.50;;;;;;;;;;5430741;26;20014;-63
2024/04/15 13:01:23;;;;;;;4.95;1.50;;;;;;;;;;5449711;26;20006;-64
2024/04/15 13:03:49;;;;;;;4.13;1.27;;;;;;;;;;5450880;26;20013;-63
2024/04/15 13:06:14;;;;;;;5.50;1.35;;;;;;;;;;5440738;26;20003;-62
2024/04/15 13:08:40;;;;;;;3.33;1.23;;;;;;;;;;5423000;26;20012;-61
2024/04/15 13:11:07;;;;;;;6.10;1.98;;;;;;;;;;5455360;26;19991;-64
2024/04/15 13:13:33;;;;;;;4.93;1.40;;;;;;;;;;5426928;26;20008;-62
2024/04/15 13:15:58;;;;;;;5.22;1.73;;;;;;;;;;5414805;26;20333;-62
2024/04/15 13:18:24;;;;;;;4.47;1.40;;;;;;;;;;5448269;26;19994;-64
2024/04/15 13:20:49;;;;;;;4.80;1.58;;;;;;;;;;5431323;26;20000;-63
2024/04/15 13:23:15;;;;;;;5.75;1.60;;;;;;;;;;5450372;26;20010;-62
2024/04/15 13:25:41;;;;;;;7.13;1.80;;;;;;;;;;5452408;26;20009;-63
2024/04/15 13:28:07;;;;;;;5.90;1.60;;;;;;;;;;5447428;26;20011;-61
2024/04/15 13:30:33;;;;;;;;;;;;;;;;;;5450593;26;20002;-64
2024/04/15 13:32:58;;;;;;;5.00;1.52;;;;;;;;;;5452237;26;19931;-62
2024/04/15 13:35:24;;;;;;;5.05;1.50;;;;;;;;;;5451959;26;20425;-63
2024/04/15 13:37:49;;;;;;;4.93;1.50;;;;;;;;;;5452393;26;20071;-64
2024/04/15 13:40:15;;;;;;;4.93;1.63;;;;;;;;;;5439203;26;20009;-62
2024/04/15 13:42:41;;;;;;;4.78;1.50;;;;;;;;;;5431722;26;20015;-63
2024/04/15 13:45:08;;;;;;;4.60;1.85;;;;;;;;;;5438657;26;20015;-62
2024/04/15 13:47:33;;;;;;;5.47;1.40;;;;;;;;;;5414432;26;20000;-62
2024/04/15 13:49:59;;;;;;;5.03;1.50;;;;;;;;;;5416665;26;20064;-61
2024/04/15 13:52:24;;;;;;;3.63;1.10;;;;;;;;;;5435286;26;20007;-66
2024/04/15 13:54:50;;;;;;;4.55;1.20;;;;;;;;;;5452161;26;20074;-63
2024/04/15 13:57:17;;;;;;;3.60;1.15;;;;;;;;;;5451540;26;20390;-63
2024/04/15 13:59:42;;;;;;;4.80;1.30;;;;;;;;;;5435059;26;20004;-63
2024/04/15 14:02:08;;;;;;;4.20;1.27;;;;;;;;;;5430472;26;20593;-63
2024/04/15 14:04:33;;;;;;;3.55;1.30;;;;;;;;;;5449670;26;20434;-63
2024/04/15 14:06:59;;;;;;;4.25;1.52;;;;;;;;;;5452269;26;20007;-64
2024/04/15 14:09:26;;;;;;;5.13;1.50;;;;;;;;;;5452435;26;20344;-62
2024/04/15 14:11:52;;;;;;;4.03;1.30;;;;;;;;;;5451289;26;20007;-63
2024/04/15 14:14:18;;;;;;;4.68;1.60;;;;;;;;;;5452030;26;20009;-63
2024/04/15 14:16:44;;;;;;;3.85;1.35;;;;;;;;;;5451278;26;20010;-62
2024/04/15 14:19:10;;;;;;;3.70;1.25;;;;;;;;;;5449349;26;20002;-63
2024/04/15 14:21:35;;;;;;;5.38;1.52;;;;;;;;;;5439679;26;22283;-63
2024/04/15 14:24:01;;;;;;;4.60;1.30;;;;;;;;;;5431999;26;20076;-65
2024/04/15 14:26:27;;;;;;;6.05;1.50;;;;;;;;;;5430681;26;19998;-64
2024/04/15 14:28:52;;;;;;;4.80;1.23;;;;;;;;;;5432666;26;20009;-64
2024/04/15 14:31:18;;;;;;;4.70;1.50;;;;;;;;;;5454724;26;20006;-64
2024/04/15 14:33:43;;;;;;;6.43;1.70;;;;;;;;;;5451005;26;19998;-62